Time;durP1;ratioP1;P1;durP2;ratioP2;P2;SDS_P1;SDS_P2;PMS_P1;PMS_P2;Temp;Humidity;BMP_temperature;BMP_pressure;BME280_temperature;BME280_humidity;BME280_pressure;Samples;Min_cycle;Max_cycle;Signal;HPM_P1;HPM_P2
2023/09/12 00:00:20;;;;;;;16.70;7.07;;;18.90;98.00;;;;;;4993837;28;20449;-73
2023/09/12 00:02:47;;;;;;;14.13;6.77;;;18.80;98.00;;;;;;4993651;28;20806;-72
2023/09/12 00:05:14;;;;;;;13.87;6.70;;;18.80;98.00;;;;;;4993660;28;21003;-72
2023/09/12 00:07:41;;;;;;;13.50;6.57;;;19.10;98.00;;;;;;4993690;28;20464;-72
2023/09/12 00:10:09;;;;;;;17.53;7.50;;;19.20;98.00;;;;;;4993768;28;20452;-72
2023/09/12 00:12:36;;;;;;;14.37;7.03;;;19.10;98.00;;;;;;4993676;28;20951;-72
2023/09/12 00:15:04;;;;;;;11.13;6.17;;;19.00;98.00;;;;;;4993542;28;20844;-72
2023/09/12 00:17:32;;;;;;;14.90;6.97;;;18.90;98.00;;;;;;4993834;28;20469;-73
2023/09/12 00:19:59;;;;;;;12.63;6.47;;;18.70;98.00;;;;;;4993392;28;20974;-72
2023/09/12 00:22:26;;;;;;;18.20;6.90;;;18.60;98.00;;;;;;4991881;28;20492;-72
2023/09/12 00:24:54;;;;;;;16.40;6.80;;;18.70;98.00;;;;;;4993192;28;20877;-72
2023/09/12 00:27:21;;;;;;;17.70;7.30;;;19.00;98.00;;;;;;4990646;28;20994;-72
2023/09/12 00:29:48;;;;;;;14.07;6.93;;;18.90;98.00;;;;;;4992754;28;20479;-72
2023/09/12 00:32:15;;;;;;;12.23;6.43;;;18.80;98.00;;;;;;4992838;28;20452;-72
2023/09/12 00:34:45;;;;;;;13.10;7.43;;;18.90;98.00;;;;;;4992779;28;20464;-72
2023/09/12 00:37:12;;;;;;;13.90;6.50;;;18.80;98.00;;;;;;4992942;28;20467;-73
2023/09/12 00:39:39;;;;;;;21.37;7.00;;;18.70;98.00;;;;;;4992790;28;20493;-72
2023/09/12 00:42:07;;;;;;;14.57;7.00;;;18.60;98.00;;;;;;4992778;28;20456;-72
2023/09/12 00:44:34;;;;;;;16.50;7.63;;;18.60;98.00;;;;;;4991973;28;20463;-72
2023/09/12 00:47:03;;;;;;;16.00;7.23;;;18.50;98.00;;;;;;4992717;28;20448;-72
2023/09/12 00:49:31;;;;;;;13.73;6.63;;;18.50;98.00;;;;;;4992653;28;20463;-72
2023/09/12 00:52:01;;;;;;;18.50;6.90;;;18.30;98.00;;;;;;4992692;28;20927;-72
2023/09/12 00:54:29;;;;;;;15.30;7.20;;;18.30;98.00;;;;;;4992881;28;20468;-72
2023/09/12 00:56:56;;;;;;;12.07;6.63;;;18.30;98.00;;;;;;4992654;28;20472;-72
2023/09/12 00:59:23;;;;;;;23.40;7.07;;;18.50;98.00;;;;;;4992559;28;20460;-71
2023/09/12 01:01:52;;;;;;;15.00;6.97;;;18.50;98.00;;;;;;4992483;28;20452;-71
2023/09/12 01:04:20;;;;;;;15.90;7.07;;;18.40;98.00;;;;;;4991533;28;20583;-72
2023/09/12 01:06:48;;;;;;;13.73;7.07;;;18.20;98.00;;;;;;4992430;28;20459;-72
2023/09/12 01:09:16;;;;;;;12.50;6.80;;;18.10;98.00;;;;;;4992638;28;20467;-71
2023/09/12 01:11:44;;;;;;;12.83;6.90;;;18.20;98.00;;;;;;4991269;28;20452;-73
2023/09/12 01:14:11;;;;;;;12.87;6.93;;;18.20;98.00;;;;;;4991349;28;20456;-71
2023/09/12 01:16:38;;;;;;;13.50;6.70;;;18.20;98.00;;;;;;4992095;28;20453;-71
2023/09/12 01:19:07;;;;;;;14.80;7.63;;;18.20;98.00;;;;;;4992529;28;20453;-71
2023/09/12 01:22:10;;;;;;;14.07;7.10;;;18.00;98.00;;;;;;4992518;28;20491;-71
2023/09/12 01:25:08;;;;;;;14.53;6.77;;;17.90;98.00;;;;;;4992218;28;20896;-72
2023/09/12 01:27:41;;;;;;;14.80;7.27;;;17.80;98.00;;;;;;4991101;28;20468;-72
2023/09/12 01:30:10;;;;;;;12.90;7.20;;;17.90;98.00;;;;;;4992078;28;20475;-72
2023/09/12 01:32:38;;;;;;;15.63;6.87;;;17.80;98.00;;;;;;4992211;28;20452;-73
2023/09/12 01:35:06;;;;;;;15.40;7.33;;;17.80;98.00;;;;;;4992396;28;20594;-72
2023/09/12 01:37:34;;;;;;;15.43;7.20;;;17.90;98.00;;;;;;4992212;28;20467;-72
2023/09/12 01:40:02;;;;;;;12.70;6.23;;;18.00;98.00;;;;;;4992334;28;20453;-73
2023/09/12 01:42:36;;;;;;;18.40;6.93;;;18.00;98.00;;;;;;4992232;28;20445;-72
2023/09/12 01:45:06;;;;;;;19.00;7.10;;;18.00;98.00;;;;;;4992221;28;20464;-71
2023/09/12 01:47:36;;;;;;;18.33;7.40;;;18.00;98.00;;;;;;4992302;28;20468;-71
2023/09/12 01:50:06;;;;;;;17.50;6.73;;;18.10;98.00;;;;;;4992242;28;20879;-72
2023/09/12 01:52:33;;;;;;;11.43;6.70;;;18.10;98.00;;;;;;4991202;28;20468;-72
2023/09/12 01:55:01;;;;;;;17.50;7.87;;;18.20;98.00;;;;;;4993700;28;20469;-71
2023/09/12 01:57:29;;;;;;;15.27;6.93;;;18.20;98.00;;;;;;4995856;28;20455;-71
2023/09/12 01:59:56;;;;;;;16.07;7.00;;;18.00;98.00;;;;;;4995937;28;20460;-72
2023/09/12 02:02:24;;;;;;;20.33;7.43;;;17.90;98.00;;;;;;4995797;28;20507;-71
2023/09/12 02:05:06;;;;;;;13.73;7.60;;;17.90;98.00;;;;;;4994278;28;20493;-71
2023/09/12 02:07:36;;;;;;;14.00;7.20;;;17.80;98.00;;;;;;4995722;28;20456;-71
2023/09/12 02:10:04;;;;;;;21.90;7.80;;;17.90;98.00;;;;;;4995765;28;20468;-71
2023/09/12 02:12:33;;;;;;;15.27;7.30;;;17.80;98.00;;;;;;4995567;28;20492;-71
2023/09/12 02:15:00;;;;;;;14.27;7.00;;;17.80;98.00;;;;;;4994787;28;20467;-72
2023/09/12 02:17:29;;;;;;;14.77;6.17;;;17.70;98.00;;;;;;4995429;28;20464;-71
2023/09/12 02:19:56;;;;;;;12.83;6.87;;;17.70;98.00;;;;;;4995331;28;20479;-71
2023/09/12 02:22:23;;;;;;;13.90;7.23;;;17.70;98.00;;;;;;4995388;28;20451;-72
2023/09/12 02:24:50;;;;;;;11.00;6.47;;;17.70;98.00;;;;;;4995108;28;20494;-72
2023/09/12 02:27:18;;;;;;;13.33;6.57;;;17.70;98.00;;;;;;4995333;28;20454;-72
2023/09/12 02:29:45;;;;;;;11.90;6.40;;;17.60;98.00;;;;;;4995016;28;20472;-72
2023/09/12 02:32:12;;;;;;;12.67;6.87;;;17.70;98.00;;;;;;4995410;28;20456;-71
2023/09/12 02:34:40;;;;;;;17.10;6.77;;;17.70;98.00;;;;;;4995158;28;20460;-72
2023/09/12 02:37:07;;;;;;;18.53;6.90;;;17.80;98.00;;;;;;4993945;28;20464;-72
2023/09/12 02:39:35;;;;;;;12.63;6.20;;;17.70;98.00;;;;;;4995210;28;20452;-71
2023/09/12 02:42:02;;;;;;;12.10;6.53;;;17.80;98.00;;;;;;4993741;28;20480;-71
2023/09/12 02:44:30;;;;;;;14.73;6.50;;;17.90;98.00;;;;;;4995077;28;20579;-72
2023/09/12 02:46:57;;;;;;;14.90;7.10;;;17.90;98.00;;;;;;4995129;28;20469;-72
2023/09/12 02:49:24;;;;;;;14.00;6.50;;;17.90;98.00;;;;;;4995274;28;20889;-71
2023/09/12 02:51:53;;;;;;;17.13;7.07;;;17.90;98.00;;;;;;4994867;28;20444;-72
2023/09/12 02:54:20;;;;;;;12.73;6.70;;;18.00;98.00;;;;;;4993596;28;20475;-71
2023/09/12 02:56:47;;;;;;;12.70;6.50;;;17.90;98.00;;;;;;4994798;28;20472;-72
2023/09/12 02:59:14;;;;;;;11.83;6.27;;;17.90;98.00;;;;;;4993670;28;20459;-72
2023/09/12 03:01:41;;;;;;;11.80;6.40;;;17.90;98.00;;;;;;4994908;28;20460;-72
2023/09/12 03:04:08;;;;;;;12.07;6.87;;;17.80;98.00;;;;;;4993616;28;20488;-72
2023/09/12 03:06:36;;;;;;;13.93;6.80;;;17.80;98.00;;;;;;4993832;28;20460;-71
2023/09/12 03:09:06;;;;;;;13.80;6.47;;;17.50;98.00;;;;;;4993636;28;20506;-72
2023/09/12 03:11:33;;;;;;;13.57;6.90;;;17.30;98.00;;;;;;4994627;28;20467;-72
2023/09/12 03:14:00;;;;;;;17.27;6.57;;;17.30;98.00;;;;;;4994529;28;20803;-72
2023/09/12 03:16:27;;;;;;;13.00;6.93;;;17.20;98.00;;;;;;4994225;28;20452;-71
2023/09/12 03:19:01;;;;;;;16.47;7.83;;;17.20;98.00;;;;;;4994378;28;20448;-71
2023/09/12 03:21:28;;;;;;;22.90;8.07;;;17.10;98.00;;;;;;4991963;28;20499;-71
2023/09/12 03:23:56;;;;;;;16.33;6.80;;;17.10;98.00;;;;;;4994260;28;20492;-72
2023/09/12 03:26:24;;;;;;;15.23;6.20;;;17.30;98.00;;;;;;4994225;28;20843;-73
2023/09/12 03:28:52;;;;;;;16.37;6.80;;;17.30;98.00;;;;;;4994228;28;20461;-73
2023/09/12 03:31:19;;;;;;;14.70;6.30;;;17.20;98.00;;;;;;4994693;28;20519;-71
2023/09/12 03:33:49;;;;;;;11.27;5.93;;;17.10;98.00;;;;;;4994527;28;20460;-72
2023/09/12 03:36:17;;;;;;;19.63;6.80;;;17.20;98.00;;;;;;4994295;28;20457;-72
2023/09/12 03:38:44;;;;;;;17.30;6.97;;;17.40;98.00;;;;;;4992774;28;20500;-71
2023/09/12 03:41:11;;;;;;;11.60;6.70;;;17.50;98.00;;;;;;4994347;28;20463;-71
2023/09/12 03:43:40;;;;;;;15.03;6.83;;;17.60;98.00;;;;;;4993911;28;20507;-71
2023/09/12 03:46:07;;;;;;;21.50;7.93;;;17.50;98.00;;;;;;4993793;28;20483;-73
2023/09/12 03:48:36;;;;;;;13.97;6.80;;;17.40;98.00;;;;;;4994113;28;20453;-71
2023/09/12 03:51:04;;;;;;;16.07;7.20;;;17.30;98.00;;;;;;4993847;28;20463;-71
2023/09/12 03:53:31;;;;;;;15.60;7.20;;;17.20;98.00;;;;;;4993797;28;21040;-72
2023/09/12 03:56:00;;;;;;;12.80;6.50;;;17.10;98.00;;;;;;4993422;28;20451;-72
2023/09/12 03:58:27;;;;;;;16.27;6.90;;;17.00;98.00;;;;;;4993621;28;20453;-71
2023/09/12 04:01:02;;;;;;;19.47;7.13;;;17.10;98.00;;;;;;4993615;28;20461;-71
2023/09/12 04:03:29;;;;;;;12.27;6.63;;;17.00;98.00;;;;;;4993671;28;20483;-71
2023/09/12 04:05:56;;;;;;;16.03;6.57;;;17.00;98.00;;;;;;4993379;28;20456;-72
2023/09/12 04:08:23;;;;;;;16.60;6.53;;;17.00;98.00;;;;;;4993577;28;20457;-71
2023/09/12 04:10:50;;;;;;;12.10;6.60;;;17.00;98.00;;;;;;4993362;28;20480;-71
2023/09/12 04:13:17;;;;;;;17.63;6.77;;;16.90;98.00;;;;;;4993403;28;20503;-73
2023/09/12 04:15:44;;;;;;;15.80;6.63;;;16.80;98.00;;;;;;4993317;28;20481;-71
2023/09/12 04:18:15;;;;;;;13.73;6.83;;;16.80;98.00;;;;;;4993174;28;20449;-71
2023/09/12 04:20:43;;;;;;;12.40;6.93;;;16.80;98.00;;;;;;4991876;28;20539;-72
2023/09/12 04:23:10;;;;;;;10.43;5.90;;;17.00;98.00;;;;;;4993230;28;20461;-71
2023/09/12 04:25:37;;;;;;;15.50;6.67;;;17.00;98.00;;;;;;4992988;28;20488;-71
2023/09/12 04:28:05;;;;;;;17.63;7.20;;;17.00;98.00;;;;;;4993281;28;20456;-71
2023/09/12 04:30:32;;;;;;;17.40;6.53;;;17.10;98.00;;;;;;4993092;28;20464;-72
2023/09/12 04:32:59;;;;;;;14.87;7.10;;;16.90;98.00;;;;;;4993225;28;20463;-72
2023/09/12 04:35:27;;;;;;;18.77;7.10;;;16.80;98.00;;;;;;4993205;28;20456;-71
2023/09/12 04:37:54;;;;;;;15.73;7.30;;;16.80;98.00;;;;;;4975622;28;20809;-72
2023/09/12 04:40:24;;;;;;;15.80;6.97;;;16.80;98.00;;;;;;4993010;28;20456;-72
2023/09/12 04:42:51;;;;;;;13.97;7.40;;;16.90;98.00;;;;;;4992903;28;20555;-72
2023/09/12 04:45:18;;;;;;;22.83;6.77;;;17.00;98.00;;;;;;4992889;28;20484;-71
2023/09/12 04:47:45;;;;;;;16.37;7.60;;;17.00;98.00;;;;;;4992961;28;20459;-71
2023/09/12 04:50:13;;;;;;;11.80;6.50;;;17.00;98.00;;;;;;4991585;28;20460;-72
2023/09/12 04:52:41;;;;;;;14.17;6.60;;;16.90;98.00;;;;;;4992824;28;20507;-72
2023/09/12 04:55:09;;;;;;;15.57;7.33;;;16.80;98.00;;;;;;4992762;28;20465;-71
2023/09/12 04:57:36;;;;;;;13.60;6.63;;;16.80;98.00;;;;;;4992788;28;20460;-71
2023/09/12 05:00:04;;;;;;;14.87;6.27;;;16.90;98.00;;;;;;4991498;28;20480;-71
2023/09/12 05:02:32;;;;;;;12.73;6.50;;;16.80;98.00;;;;;;4992577;28;20542;-71
2023/09/12 05:04:59;;;;;;;15.67;6.30;;;16.90;98.00;;;;;;4992360;28;20480;-71
2023/09/12 05:07:27;;;;;;;14.70;6.53;;;17.10;98.00;;;;;;4992670;28;20803;-71
2023/09/12 05:09:56;;;;;;;15.90;7.10;;;17.30;98.00;;;;;;4992339;28;20444;-72
2023/09/12 05:12:23;;;;;;;14.50;6.90;;;17.40;98.00;;;;;;4991243;28;20487;-73
2023/09/12 05:14:50;;;;;;;12.77;5.70;;;17.30;98.00;;;;;;4991744;28;20456;-72
2023/09/12 05:17:17;;;;;;;11.83;6.70;;;17.30;98.00;;;;;;4991842;28;20456;-71
2023/09/12 05:19:44;;;;;;;13.60;7.27;;;17.40;98.00;;;;;;4993003;28;20457;-71
2023/09/12 05:22:11;;;;;;;13.03;6.30;;;17.30;98.00;;;;;;4992510;28;20967;-71
2023/09/12 05:24:38;;;;;;;11.07;5.73;;;17.20;98.00;;;;;;4992887;28;21012;-71
2023/09/12 05:27:07;;;;;;;13.60;6.60;;;17.10;98.00;;;;;;4991417;28;20463;-72
2023/09/12 05:29:34;;;;;;;13.00;6.47;;;17.10;98.00;;;;;;4991803;28;20469;-71
2023/09/12 05:32:01;;;;;;;18.83;7.20;;;17.00;98.00;;;;;;4992526;28;20990;-72
2023/09/12 05:34:28;;;;;;;27.77;12.40;;;17.10;98.00;;;;;;4992600;28;20464;-71
2023/09/12 05:36:55;;;;;;;19.43;8.20;;;17.10;98.00;;;;;;4992424;28;20462;-71
2023/09/12 05:39:22;;;;;;;16.97;8.07;;;17.20;98.00;;;;;;4991087;28;20453;-71
2023/09/12 05:41:49;;;;;;;17.67;8.20;;;17.30;98.00;;;;;;4992377;28;20452;-71
2023/09/12 05:44:18;;;;;;;19.10;7.17;;;17.30;98.00;;;;;;4992548;28;20518;-71
2023/09/12 05:46:47;;;;;;;13.70;6.40;;;17.40;98.00;;;;;;4992276;28;20464;-70
2023/09/12 05:49:14;;;;;;;15.00;7.10;;;17.40;98.00;;;;;;4992413;28;20514;-70
2023/09/12 05:51:42;;;;;;;14.63;7.00;;;17.40;98.00;;;;;;4992330;28;20456;-71
2023/09/12 05:54:09;;;;;;;16.87;7.20;;;17.60;98.00;;;;;;4992488;28;20441;-75
2023/09/12 05:56:36;;;;;;;13.37;6.53;;;17.50;98.00;;;;;;4992935;28;20559;-76
2023/09/12 05:59:04;;;;;;;21.40;7.67;;;17.40;98.00;;;;;;4992977;28;20452;-76
2023/09/12 06:01:32;;;;;;;23.70;7.30;;;17.40;98.00;;;;;;4993422;28;20462;-74
2023/09/12 06:03:59;;;;;;;13.40;6.87;;;17.40;98.00;;;;;;4993821;28;20460;-76
2023/09/12 06:06:27;;;;;;;15.60;7.47;;;17.50;98.00;;;;;;4993618;28;20460;-75
2023/09/12 06:08:54;;;;;;;14.73;7.30;;;17.60;98.00;;;;;;4993103;28;20475;-75
2023/09/12 06:11:21;;;;;;;13.67;7.20;;;17.70;98.00;;;;;;4992601;28;20456;-76
2023/09/12 06:13:48;;;;;;;16.10;7.20;;;17.80;98.00;;;;;;4991081;28;20460;-75
2023/09/12 06:16:15;;;;;;;19.80;8.13;;;17.90;98.00;;;;;;4992262;28;20826;-74
2023/09/12 06:18:44;;;;;;;13.90;7.00;;;18.10;98.00;;;;;;4992193;28;20464;-76
2023/09/12 06:21:21;;;;;;;14.87;7.00;;;18.20;98.00;;;;;;4992211;28;20471;-76
2023/09/12 06:23:48;;;;;;;17.10;7.80;;;18.30;98.00;;;;;;4992111;28;20541;-76
2023/09/12 06:26:15;;;;;;;23.13;7.87;;;18.40;98.00;;;;;;4991864;28;20495;-77
2023/09/12 06:28:42;;;;;;;18.70;7.80;;;18.60;98.00;;;;;;4992025;28;20452;-77
2023/09/12 06:31:10;;;;;;;19.97;7.50;;;18.60;98.00;;;;;;4992259;28;20452;-77
2023/09/12 06:33:37;;;;;;;13.83;7.00;;;18.70;98.00;;;;;;4992350;28;20860;-75
2023/09/12 06:36:06;;;;;;;14.67;7.80;;;18.90;98.00;;;;;;4990909;28;20460;-77
2023/09/12 06:38:33;;;;;;;13.43;6.97;;;18.90;98.00;;;;;;4992064;28;20464;-78
2023/09/12 06:41:00;;;;;;;17.63;7.93;;;18.80;98.00;;;;;;4992225;28;20953;-77
2023/09/12 06:43:30;;;;;;;14.13;7.40;;;18.80;98.00;;;;;;4995631;28;20462;-76
2023/09/12 06:45:57;;;;;;;17.30;7.30;;;18.70;98.00;;;;;;4995518;28;20519;-76
2023/09/12 06:48:26;;;;;;;12.13;6.90;;;18.70;98.00;;;;;;4995670;28;20466;-77
2023/09/12 06:50:54;;;;;;;15.77;8.03;;;18.80;98.00;;;;;;4994958;28;20460;-77
2023/09/12 06:53:24;;;;;;;18.53;7.97;;;19.00;98.00;;;;;;4995414;28;20475;-78
2023/09/12 06:55:51;;;;;;;15.43;7.20;;;19.10;98.00;;;;;;4995514;28;20456;-77
2023/09/12 06:58:18;;;;;;;14.43;7.17;;;19.10;98.00;;;;;;4995540;28;20452;-75
2023/09/12 07:00:45;;;;;;;15.73;7.67;;;19.30;98.00;;;;;;4995275;28;20452;-76
2023/09/12 07:03:12;;;;;;;15.00;6.97;;;19.30;98.00;;;;;;4993447;28;20484;-75
2023/09/12 07:05:40;;;;;;;20.03;8.10;;;19.40;98.00;;;;;;4994646;28;20853;-74
2023/09/12 07:08:08;;;;;;;20.30;7.60;;;19.60;98.00;;;;;;4994514;28;20540;-76
2023/09/12 07:10:36;;;;;;;21.23;7.77;;;19.70;98.00;;;;;;4994749;28;20448;-75
2023/09/12 07:13:04;;;;;;;18.07;7.90;;;19.90;98.00;;;;;;4993665;28;20464;-75
2023/09/12 07:15:31;;;;;;;15.20;7.30;;;19.90;98.00;;;;;;4994687;28;20534;-77
2023/09/12 07:17:59;;;;;;;22.93;6.90;;;20.10;98.00;;;;;;4994423;28;20457;-68
2023/09/12 07:20:26;;;;;;;12.70;6.00;;;20.20;98.00;;;;;;4994279;28;20453;-69
2023/09/12 07:22:53;;;;;;;12.83;6.60;;;20.60;98.00;;;;;;4994564;28;20906;-68
2023/09/12 07:25:23;;;;;;;13.20;6.40;;;21.00;98.00;;;;;;4993406;28;20570;-69
2023/09/12 07:27:54;;;;;;;15.10;6.23;;;21.30;98.00;;;;;;4994363;28;20939;-66
2023/09/12 07:30:22;;;;;;;14.47;6.70;;;21.60;98.00;;;;;;4994141;28;21093;-70
2023/09/12 07:32:50;;;;;;;22.23;6.80;;;21.80;98.00;;;;;;4994438;28;20511;-67
2023/09/12 07:35:17;;;;;;;17.03;7.40;;;22.00;98.00;;;;;;4993587;28;20540;-68
2023/09/12 07:37:44;;;;;;;13.27;7.20;;;22.20;98.00;;;;;;4994055;28;20441;-68
2023/09/12 07:40:12;;;;;;;15.73;7.30;;;22.40;98.00;;;;;;4994129;28;20471;-68
2023/09/12 07:42:39;;;;;;;19.70;7.30;;;22.30;98.00;;;;;;4993599;28;20464;-68
2023/09/12 07:45:08;;;;;;;18.47;7.80;;;22.20;98.00;;;;;;4994116;28;20484;-68
2023/09/12 07:47:35;;;;;;;15.17;7.13;;;22.20;98.00;;;;;;4993974;28;20452;-68
2023/09/12 07:50:03;;;;;;;11.40;6.10;;;22.40;98.00;;;;;;4994191;28;20789;-71
2023/09/12 07:52:31;;;;;;;13.20;7.57;;;22.60;98.00;;;;;;4993510;28;20519;-68
2023/09/12 07:55:00;;;;;;;16.10;7.23;;;22.80;98.00;;;;;;4993978;28;20532;-67
2023/09/12 07:57:28;;;;;;;12.17;6.53;;;22.90;98.00;;;;;;4993928;28;20453;-68
2023/09/12 07:59:57;;;;;;;12.87;7.57;;;23.00;98.00;;;;;;4993935;28;20460;-68
2023/09/12 08:02:26;;;;;;;15.87;7.30;;;23.10;98.00;;;;;;4993840;28;20468;-68
2023/09/12 08:04:53;;;;;;;11.80;5.90;;;23.20;98.00;;;;;;4993757;28;20484;-68
2023/09/12 08:07:20;;;;;;;11.93;7.03;;;23.40;98.00;;;;;;4993803;28;20460;-68
2023/09/12 08:09:52;;;;;;;11.07;6.40;;;23.60;98.00;;;;;;4993835;28;20817;-68
2023/09/12 08:12:20;;;;;;;16.90;7.93;;;23.70;98.00;;;;;;4993626;28;20491;-68
2023/09/12 08:14:47;;;;;;;14.13;6.73;;;23.70;98.00;;;;;;4993621;28;20475;-68
2023/09/12 08:17:15;;;;;;;13.57;6.97;;;23.70;98.00;;;;;;4993354;28;20459;-68
2023/09/12 08:19:44;;;;;;;15.40;6.50;;;23.80;98.00;;;;;;4993558;28;20460;-68
2023/09/12 08:22:11;;;;;;;47.27;7.60;;;24.10;98.00;;;;;;4993095;28;20452;-68
2023/09/12 08:24:39;;;;;;;16.40;7.70;;;24.20;98.00;;;;;;4993256;28;20955;-68
2023/09/12 08:27:08;;;;;;;12.87;6.90;;;24.40;98.00;;;;;;4993380;28;20484;-68
2023/09/12 08:29:36;;;;;;;12.83;7.03;;;24.50;98.00;;;;;;4993199;28;20464;-67
2023/09/12 08:32:03;;;;;;;16.13;8.13;;;24.80;98.00;;;;;;4993193;28;20448;-68
2023/09/12 08:34:31;;;;;;;14.40;7.70;;;25.00;98.00;;;;;;4993231;28;20452;-68
2023/09/12 08:36:59;;;;;;;14.13;7.70;;;25.10;98.00;;;;;;4992026;28;20968;-68
2023/09/12 08:39:28;;;;;;;15.37;7.90;;;25.30;98.00;;;;;;4992669;28;20452;-68
2023/09/12 08:41:55;;;;;;;15.63;8.13;;;25.40;98.00;;;;;;4992713;28;20459;-68
2023/09/12 08:44:22;;;;;;;13.63;7.70;;;25.30;98.00;;;;;;4993305;28;20479;-68
2023/09/12 08:46:49;;;;;;;13.80;7.67;;;25.30;98.00;;;;;;4992767;28;20492;-68
2023/09/12 08:49:17;;;;;;;18.87;7.93;;;25.50;98.00;;;;;;4982012;28;20453;-69
2023/09/12 08:51:45;;;;;;;15.97;8.00;;;25.60;98.00;;;;;;4973382;28;20460;-68
2023/09/12 08:54:14;;;;;;;12.90;7.47;;;25.60;98.00;;;;;;4973691;28;20450;-70
2023/09/12 08:56:42;;;;;;;12.70;7.53;;;25.70;98.00;;;;;;4973124;28;20516;-68
2023/09/12 08:59:11;;;;;;;18.50;7.50;;;25.80;98.00;;;;;;4973283;28;20458;-68
2023/09/12 09:01:39;;;;;;;13.77;7.53;;;25.90;98.00;;;;;;4973023;28;20508;-69
2023/09/12 09:04:07;;;;;;;14.47;8.10;;;25.80;98.00;;;;;;4972338;28;20576;-68
2023/09/12 09:06:37;;;;;;;12.47;7.70;;;26.00;98.00;;;;;;4972595;28;20504;-69
2023/09/12 09:09:06;;;;;;;19.50;7.90;;;26.20;98.00;;;;;;4973237;28;20457;-68
2023/09/12 09:11:34;;;;;;;13.53;7.80;;;26.40;98.00;;;;;;4973548;28;20465;-68
2023/09/12 09:14:03;;;;;;;15.80;8.10;;;26.40;98.00;;;;;;4973253;28;20952;-69
2023/09/12 09:16:31;;;;;;;15.17;7.70;;;26.40;98.00;;;;;;4971806;28;20462;-69
2023/09/12 09:19:00;;;;;;;18.00;8.17;;;26.60;98.00;;;;;;4987798;28;20457;-69
2023/09/12 09:21:30;;;;;;;13.20;7.57;;;26.70;98.00;;;;;;4973107;28;20963;-69
2023/09/12 09:23:59;;;;;;;13.93;7.67;;;26.80;98.00;;;;;;4973241;28;20819;-68
2023/09/12 09:26:27;;;;;;;16.87;7.50;;;27.00;98.00;;;;;;4972990;28;20489;-73
2023/09/12 09:29:09;;;;;;;14.40;8.17;;;27.20;98.00;;;;;;4972898;28;20473;-74
2023/09/12 09:31:40;;;;;;;14.77;8.10;;;27.30;98.00;;;;;;4973000;28;20476;-65
2023/09/12 09:34:12;;;;;;;13.50;7.70;;;27.40;98.00;;;;;;4973144;28;20460;-65
2023/09/12 09:36:43;;;;;;;17.20;7.43;;;27.40;98.00;;;;;;4972563;28;20489;-64
2023/09/12 09:39:11;;;;;;;15.97;8.60;;;27.50;98.00;;;;;;4973050;28;21137;-68
2023/09/12 09:41:40;;;;;;;15.60;8.10;;;27.60;98.00;;;;;;4971678;28;20458;-67
2023/09/12 09:44:10;;;;;;;12.30;7.40;;;27.60;98.00;;;;;;4972401;28;20460;-68
2023/09/12 09:46:38;;;;;;;14.03;8.00;;;27.60;98.00;;;;;;4972229;28;20481;-68
2023/09/12 09:49:06;;;;;;;15.03;8.70;;;27.70;98.00;;;;;;4972400;28;20944;-68
2023/09/12 09:51:33;;;;;;;41.43;8.07;;;27.80;98.00;;;;;;4972197;28;20457;-69
2023/09/12 09:54:00;;;;;;;13.27;7.90;;;28.00;98.00;;;;;;4972402;28;20836;-67
2023/09/12 09:56:27;;;;;;;15.87;7.83;;;28.10;98.00;;;;;;4972175;28;20456;-70
2023/09/12 09:58:57;;;;;;;13.10;7.80;;;28.30;98.00;;;;;;4972206;28;20976;-70
2023/09/12 10:01:29;;;;;;;15.67;7.97;;;28.50;98.00;;;;;;4972445;28;20814;-70
2023/09/12 10:04:00;;;;;;;15.03;7.63;;;28.60;98.00;;;;;;4972294;28;20517;-66
2023/09/12 10:06:29;;;;;;;14.70;8.70;;;28.80;98.00;;;;;;4972090;28;20492;-75
2023/09/12 10:08:56;;;;;;;17.73;8.50;;;29.00;98.00;;;;;;4972153;28;20458;-75
2023/09/12 10:11:25;;;;;;;17.80;8.07;;;29.00;98.00;;;;;;4972175;28;20454;-75
2023/09/12 10:13:55;;;;;;;18.93;8.60;;;29.20;98.00;;;;;;4972239;28;20767;-75
2023/09/12 10:16:29;;;;;;;15.73;8.53;;;29.30;98.00;;;;;;4974247;28;20982;-75
2023/09/12 10:19:00;;;;;;;15.60;8.07;;;29.50;98.00;;;;;;4976028;28;20460;-75
2023/09/12 10:21:32;;;;;;;12.73;7.90;;;29.60;98.00;;;;;;4976025;28;20476;-75
2023/09/12 10:24:00;;;;;;;15.63;8.17;;;29.70;98.00;;;;;;4976062;28;20489;-75
2023/09/12 10:26:28;;;;;;;14.73;8.67;;;29.90;98.00;;;;;;4975781;28;20489;-75
2023/09/12 10:28:56;;;;;;;15.43;8.30;;;30.20;98.00;;;;;;4974526;28;20461;-75
2023/09/12 10:31:25;;;;;;;16.60;9.40;;;30.30;98.00;;;;;;4975593;28;20472;-75
2023/09/12 10:33:53;;;;;;;14.73;8.70;;;30.50;98.00;;;;;;4975575;28;20818;-75
2023/09/12 10:36:22;;;;;;;16.03;8.33;;;30.70;98.00;;;;;;4975406;28;20955;-75
2023/09/12 10:38:50;;;;;;;16.37;8.30;;;30.80;98.00;;;;;;4975688;28;20858;-75
2023/09/12 10:41:17;;;;;;;12.70;7.57;;;30.90;96.50;;;;;;4975445;28;20457;-75
2023/09/12 10:43:49;;;;;;;12.90;8.30;;;31.00;96.20;;;;;;4975614;28;20472;-75
2023/09/12 10:46:17;;;;;;;14.97;8.13;;;31.20;96.20;;;;;;4975380;28;20497;-75
2023/09/12 10:48:46;;;;;;;13.50;7.87;;;31.30;95.40;;;;;;4975202;28;20532;-75
2023/09/12 10:51:14;;;;;;;13.60;8.10;;;31.50;94.90;;;;;;4975238;28;20512;-75
2023/09/12 10:53:49;;;;;;;12.10;7.13;;;31.60;95.40;;;;;;4975095;28;20481;-74
2023/09/12 10:56:20;;;;;;;15.27;8.23;;;31.80;93.30;;;;;;4975143;28;20457;-74
2023/09/12 10:59:13;;;;;;;11.23;7.40;;;32.00;93.10;;;;;;4990027;28;20461;-75
2023/09/12 11:01:40;;;;;;;18.43;8.80;;;32.20;94.20;;;;;;4974940;28;20547;-75
2023/09/12 11:04:37;;;;;;;14.80;8.30;;;32.20;91.20;;;;;;4975024;28;20461;-74
2023/09/12 11:07:32;;;;;;;12.43;7.70;;;32.20;91.20;;;;;;4975018;28;20511;-74
2023/09/12 11:10:22;;;;;;;11.90;7.50;;;32.30;91.00;;;;;;4975322;28;20563;-75
2023/09/12 11:12:52;;;;;;;14.37;8.20;;;32.50;90.90;;;;;;4975445;28;20569;-75
2023/09/12 11:15:20;;;;;;;13.27;7.80;;;32.60;92.80;;;;;;4975658;28;20453;-75
2023/09/12 11:17:48;;;;;;;16.07;8.50;;;32.80;90.90;;;;;;4975228;28;20445;-75
2023/09/12 11:20:17;;;;;;;14.17;8.57;;;32.80;90.90;;;;;;4975428;28;20457;-75
2023/09/12 11:22:45;;;;;;;13.97;8.07;;;32.90;90.20;;;;;;4975231;28;20462;-75
2023/09/12 11:25:22;;;;;;;17.20;8.50;;;33.10;89.50;;;;;;4975370;28;20457;-75
2023/09/12 11:28:05;;;;;;;12.23;8.00;;;33.20;87.70;;;;;;4974311;28;20497;-75
2023/09/12 11:30:32;;;;;;;15.00;9.00;;;33.30;89.50;;;;;;4989729;28;21046;-75
2023/09/12 11:33:00;;;;;;;15.17;8.40;;;33.60;88.20;;;;;;4975119;28;20453;-75
2023/09/12 11:35:30;;;;;;;11.27;7.70;;;33.60;87.60;;;;;;4975243;28;20465;-75
2023/09/12 11:37:59;;;;;;;17.00;8.10;;;33.80;87.30;;;;;;4975038;28;20820;-76
2023/09/12 11:40:42;;;;;;;14.40;8.80;;;33.70;85.50;;;;;;4974913;28;20458;-73
2023/09/12 11:43:18;;;;;;;14.10;8.30;;;33.80;86.10;;;;;;4987635;28;20453;-72
2023/09/12 11:45:48;;;;;;;16.00;8.00;;;33.70;86.30;;;;;;4975021;28;20461;-73
2023/09/12 11:48:15;;;;;;;13.77;8.23;;;33.80;85.50;;;;;;4975135;28;20465;-74
2023/09/12 11:50:43;;;;;;;16.07;7.93;;;34.00;85.70;;;;;;4974939;28;20453;-73
2023/09/12 11:53:11;;;;;;;14.53;7.67;;;34.20;85.40;;;;;;4974972;28;20449;-74
2023/09/12 11:55:43;;;;;;;13.33;8.10;;;34.30;83.70;;;;;;4974899;28;20454;-73
2023/09/12 11:58:11;;;;;;;13.70;7.70;;;34.50;83.60;;;;;;4975134;28;20815;-74
2023/09/12 12:00:38;;;;;;;15.50;7.53;;;34.60;82.10;;;;;;4974721;28;20458;-72
2023/09/12 12:03:06;;;;;;;13.37;7.20;;;34.70;81.60;;;;;;4974654;28;20994;-76
2023/09/12 12:05:36;;;;;;;12.03;7.70;;;34.90;82.60;;;;;;4974554;28;21030;-74
2023/09/12 12:08:05;;;;;;;12.23;7.50;;;35.00;81.10;;;;;;4989546;28;21177;-76
2023/09/12 12:10:33;;;;;;;10.80;7.03;;;35.00;80.90;;;;;;4974376;28;20461;-74
2023/09/12 12:13:00;;;;;;;12.73;7.23;;;35.10;77.30;;;;;;4974373;28;20454;-74
2023/09/12 12:15:29;;;;;;;19.00;6.97;;;35.20;79.20;;;;;;4974214;28;20986;-74
2023/09/12 12:17:56;;;;;;;14.53;7.90;;;35.40;77.10;;;;;;4974225;28;20902;-73
2023/09/12 12:20:24;;;;;;;13.57;7.77;;;35.50;78.10;;;;;;4974012;28;20481;-74
2023/09/12 12:22:53;;;;;;;11.47;7.20;;;35.60;79.30;;;;;;4974148;28;20836;-74
2023/09/12 12:25:22;;;;;;;14.23;7.40;;;35.40;78.70;;;;;;4973985;28;20632;-74
2023/09/12 12:27:49;;;;;;;10.30;7.00;;;35.70;77.20;;;;;;4973769;28;20500;-73
2023/09/12 12:30:16;;;;;;;11.57;6.87;;;35.70;76.40;;;;;;4973770;28;20469;-73
2023/09/12 12:32:46;;;;;;;11.03;7.13;;;35.90;75.50;;;;;;4973776;28;20477;-64
2023/09/12 12:35:18;;;;;;;12.10;7.43;;;35.90;78.20;;;;;;4974039;28;20465;-70
2023/09/12 12:37:45;;;;;;;15.03;7.30;;;35.90;77.10;;;;;;4973783;28;20468;-69
2023/09/12 12:40:13;;;;;;;13.87;7.40;;;35.90;80.20;;;;;;4973741;28;20456;-69
2023/09/12 12:42:43;;;;;;;11.90;6.83;;;35.70;78.20;;;;;;4973719;28;20465;-70